首页
METAR-TAF:

METAR-TAF

机场 :

Gaylord Regional Airport (Otsego County Airport)

Gaylord, 密歇根州, 美国

纬度: 45-00-59N, 经度: 084-41-20W, 海拔: 404米

当前天气观测

该预报发布于53分钟前的07:53 UTC
风速5节,风向南转西南
温度 -14°C
湿度 85%
气压 1030 hPa
能見度: 16.1公里
天空无云

METAR: KGLR 120753Z AUTO 21005KT 10SM CLR M14/M16 A3042 RMK AO2 SLP334 T11391156

时间: 03:46 (08:46 UTC)


TAF: 丢失

超过4000个机场的气象观测和天气预报(METAR&TAF报告)。

可查询的气象台以黄色和红色小点在地图上表示。

将鼠标移到小点上方,可查看气象台名称。

然后点击查看天气观测和预报。

如需切换地图:点击带黑十字的绿色按钮放大地图;点击带横线的绿色按钮缩小地图;或者点击绿色箭头查看邻近地区的地图。


METAR-TAF: